Time;durP1;ratioP1;P1;durP2;ratioP2;P2;SDS_P1;SDS_P2;PMS_P1;PMS_P2;Temp;Humidity;BMP_temperature;BMP_pressure;BME280_temperature;BME280_humidity;BME280_pressure;Samples;Min_cycle;Max_cycle;Signal;HPM_P1;HPM_P2
2023/09/14 00:00:55;;;;;;;;;;;20.80;85.40;;;;;;4984725;28;20064;-77
2023/09/14 00:03:22;;;;;;;;;;;20.70;85.40;;;;;;5004024;28;19964;-74
2023/09/14 00:05:49;;;;;;;;;;;20.70;85.50;;;;;;4985563;28;20053;-76
2023/09/14 00:08:16;;;;;;;;;;;20.70;86.20;;;;;;5004783;28;20641;-75
2023/09/14 00:10:43;;;;;;;;;;;20.70;85.50;;;;;;5005039;28;20099;-77
2023/09/14 00:13:10;;;;;;;;;;;20.60;85.50;;;;;;5002688;28;20255;-76
2023/09/14 00:15:39;;;;;;;;;;;20.60;85.50;;;;;;5001771;28;20078;-76
2023/09/14 00:18:07;;;;;;;;;;;20.60;85.50;;;;;;4989841;28;20104;-76
2023/09/14 00:20:34;;;;;;;;;;;20.60;85.50;;;;;;5006690;28;19959;-76
2023/09/14 00:23:00;;;;;;;;;;;20.60;85.60;;;;;;5005940;28;20524;-76
2023/09/14 00:25:27;;;;;;;;;;;20.50;85.60;;;;;;5004708;28;20107;-77
2023/09/14 00:27:54;;;;;;;;;;;20.50;85.60;;;;;;4990104;28;20198;-76
2023/09/14 00:30:22;;;;;;;;;;;20.50;85.60;;;;;;5002188;28;25080;-77
2023/09/14 00:32:50;;;;;;;;;;;20.50;85.70;;;;;;4999885;28;19959;-76
2023/09/14 00:35:19;;;;;;;;;;;20.40;85.60;;;;;;5006127;28;20104;-77
2023/09/14 00:37:46;;;;;;;;;;;20.40;85.70;;;;;;4986061;28;20148;-76
2023/09/14 00:40:14;;;;;;;;;;;20.40;85.70;;;;;;5000744;28;20129;-76
2023/09/14 00:42:42;;;;;;;;;;;20.30;85.60;;;;;;4988543;28;20084;-76
2023/09/14 00:45:08;;;;;;;;;;;20.30;85.60;;;;;;5005572;28;20328;-76
2023/09/14 00:47:35;;;;;;;;;;;20.30;85.70;;;;;;4989014;28;20183;-76
2023/09/14 00:50:03;;;;;;;;;;;20.30;85.70;;;;;;4994441;28;20580;-76
2023/09/14 00:52:31;;;;;;;;;;;20.30;85.70;;;;;;4995861;28;20569;-77
2023/09/14 00:55:00;;;;;;;;;;;20.30;85.80;;;;;;4985323;28;25045;-76
2023/09/14 00:57:27;;;;;;;;;;;20.20;85.80;;;;;;4992975;28;20054;-75
2023/09/14 00:59:54;;;;;;;;;;;20.20;85.80;;;;;;4981119;28;19967;-77
2023/09/14 01:02:21;;;;;;;;;;;20.10;85.70;;;;;;5002227;28;20102;-77
2023/09/14 01:04:48;;;;;;;;;;;20.10;86.60;;;;;;4973014;28;20169;-77
2023/09/14 01:07:15;;;;;;;;;;;20.10;85.80;;;;;;4969247;28;20161;-77
2023/09/14 01:09:43;;;;;;;;;;;20.10;85.90;;;;;;5002120;28;20465;-77
2023/09/14 01:12:10;;;;;;;;;;;20.10;85.90;;;;;;4983877;28;19967;-75
2023/09/14 01:14:40;;;;;;;;;;;20.10;85.90;;;;;;4994289;28;20094;-76
2023/09/14 01:17:09;;;;;;;;;;;20.00;86.00;;;;;;4996085;28;20616;-77
2023/09/14 01:19:40;;;;;;;;;;;20.00;86.00;;;;;;4984272;28;19963;-77
2023/09/14 01:22:24;;;;;;;;;;;20.00;86.00;;;;;;4971669;28;20226;-77
2023/09/14 01:24:58;;;;;;;;;;;20.00;86.00;;;;;;4985641;28;20088;-76
2023/09/14 01:27:26;;;;;;;;;;;20.00;86.00;;;;;;5002176;28;20074;-75
2023/09/14 01:29:54;;;;;;;;;;;19.90;85.90;;;;;;4975458;28;20144;-76
2023/09/14 01:32:21;;;;;;;;;;;19.90;86.00;;;;;;4992731;28;20112;-74
2023/09/14 01:34:47;;;;;;;;;;;19.90;86.00;;;;;;4975591;28;19962;-77
2023/09/14 01:37:15;;;;;;;;;;;19.90;86.00;;;;;;4991895;28;20117;-77
2023/09/14 01:39:44;;;;;;;;;;;19.80;86.00;;;;;;5000732;28;19957;-77
2023/09/14 01:42:11;;;;;;;;;;;19.80;86.00;;;;;;5006425;28;20089;-77
2023/09/14 01:44:40;;;;;;;;;;;19.70;86.00;;;;;;4987230;28;20047;-77
2023/09/14 01:47:06;;;;;;;;;;;19.80;86.00;;;;;;5004999;28;20082;-77
2023/09/14 01:49:33;;;;;;;;;;;19.70;86.00;;;;;;5009768;28;19965;-77
2023/09/14 01:52:00;;;;;;;;;;;19.70;86.70;;;;;;5001037;28;20117;-76
2023/09/14 01:54:27;;;;;;;;;;;19.70;86.00;;;;;;5000922;28;20216;-77
2023/09/14 01:56:53;;;;;;;;;;;19.60;86.00;;;;;;4990226;28;19958;-77
2023/09/14 01:59:20;;;;;;;;;;;19.70;86.00;;;;;;5014905;28;20107;-76
2023/09/14 02:01:48;;;;;;;;;;;19.60;86.00;;;;;;5010248;28;19977;-76
2023/09/14 02:04:15;;;;;;;;;;;19.60;86.00;;;;;;5015897;28;20055;-76
2023/09/14 02:06:42;;;;;;;;;;;19.60;86.00;;;;;;4996122;28;25090;-77
2023/09/14 02:09:09;;;;;;;;;;;19.50;85.90;;;;;;5009201;28;19960;-76
2023/09/14 02:11:35;;;;;;;;;;;19.50;85.90;;;;;;4978583;28;19952;-75
2023/09/14 02:14:02;;;;;;;;;;;19.50;85.90;;;;;;4991831;28;20595;-75
2023/09/14 02:16:29;;;;;;;;;;;19.50;85.90;;;;;;5014943;28;20103;-76
2023/09/14 02:18:57;;;;;;;;;;;19.50;85.90;;;;;;5018596;28;20138;-75
2023/09/14 02:21:23;;;;;;;;;;;19.40;85.80;;;;;;5020997;28;20157;-77
2023/09/14 02:23:50;;;;;;;;;;;19.40;85.80;;;;;;5019383;28;20089;-76
2023/09/14 02:26:16;;;;;;;;;;;19.40;85.90;;;;;;5018237;28;20070;-76
2023/09/14 02:28:43;;;;;;;;;;;19.40;85.80;;;;;;5022914;28;20768;-77
2023/09/14 02:31:10;;;;;;;;;;;19.30;85.90;;;;;;4997492;28;20360;-76
2023/09/14 02:33:38;;;;;;;;;;;19.30;85.90;;;;;;5014012;28;20096;-77
2023/09/14 02:36:06;;;;;;;;;;;19.30;85.90;;;;;;4981886;28;20519;-76
2023/09/14 02:38:33;;;;;;;;;;;19.30;85.90;;;;;;5002739;28;20231;-76
2023/09/14 02:41:00;;;;;;;;;;;19.20;85.80;;;;;;4997409;28;20123;-77
2023/09/14 02:43:26;;;;;;;;;;;19.20;85.90;;;;;;5016419;28;20049;-76
2023/09/14 02:45:53;;;;;;;;;;;19.20;85.90;;;;;;4992897;28;20517;-77
2023/09/14 02:48:20;;;;;;;;;;;19.20;85.90;;;;;;4996955;28;20609;-75
2023/09/14 02:50:46;;;;;;;;;;;19.10;85.80;;;;;;5015024;28;20110;-77
2023/09/14 02:53:14;;;;;;;;;;;19.10;85.80;;;;;;5019812;28;20063;-77
2023/09/14 02:55:41;;;;;;;;;;;19.10;85.90;;;;;;5013164;28;20088;-76
2023/09/14 02:58:08;;;;;;;;;;;19.10;85.90;;;;;;5018986;28;20378;-76
2023/09/14 03:00:37;;;;;;;;;;;19.00;85.90;;;;;;5016040;28;25093;-77
2023/09/14 03:03:04;;;;;;;;;;;19.00;85.90;;;;;;5014299;28;25055;-76
2023/09/14 03:05:31;;;;;;;;;;;19.00;86.00;;;;;;5004843;28;20132;-76
2023/09/14 03:07:57;;;;;;;;;;;19.00;85.90;;;;;;5022628;28;25073;-77
2023/09/14 03:10:26;;;;;;;;;;;18.90;85.80;;;;;;5019589;28;25182;-77
2023/09/14 03:12:52;;;;;;;;;;;18.90;85.90;;;;;;5020812;28;25173;-78
2023/09/14 03:15:19;;;;;;;;;;;18.90;85.90;;;;;;5006005;28;20190;-77
2023/09/14 03:17:46;;;;;;;;;;;18.90;86.00;;;;;;5004418;28;19951;-76
2023/09/14 03:20:13;;;;;;;;;;;18.90;85.90;;;;;;5003527;28;25066;-77
2023/09/14 03:22:40;;;;;;;;;;;18.80;85.90;;;;;;5019482;28;20687;-77
2023/09/14 03:25:07;;;;;;;;;;;18.80;85.90;;;;;;5015791;28;20154;-78
2023/09/14 03:27:36;;;;;;;;;;;18.80;85.90;;;;;;5021376;28;20931;-78
2023/09/14 03:30:03;;;;;;;;;;;18.80;86.00;;;;;;5016826;28;20599;-76
2023/09/14 03:32:30;;;;;;;;;;;18.70;85.90;;;;;;5001130;28;25068;-77
2023/09/14 03:34:56;;;;;;;;;;;18.70;85.80;;;;;;5022474;28;20118;-78
2023/09/14 03:37:24;;;;;;;;;;;18.70;85.90;;;;;;5018969;28;19968;-77
2023/09/14 03:39:50;;;;;;;;;;;18.70;85.90;;;;;;5017593;28;25131;-75
2023/09/14 03:42:17;;;;;;;;;;;18.60;85.80;;;;;;5022300;28;20173;-77
2023/09/14 03:44:45;;;;;;;;;;;18.60;85.90;;;;;;5023493;28;25142;-77
2023/09/14 03:47:12;;;;;;;;;;;18.60;85.80;;;;;;5014260;28;25077;-77
2023/09/14 03:49:38;;;;;;;;;;;18.60;85.90;;;;;;5020854;28;25163;-78
2023/09/14 03:52:05;;;;;;;;;;;18.60;85.90;;;;;;5019270;28;25080;-76
2023/09/14 03:54:32;;;;;;;;;;;18.60;85.90;;;;;;5023529;28;20416;-77
2023/09/14 03:56:59;;;;;;;;;;;18.50;85.80;;;;;;5021394;28;25071;-76
2023/09/14 03:59:25;;;;;;;;;;;18.50;85.80;;;;;;5023985;28;25057;-78
2023/09/14 04:01:54;;;;;;;;;;;18.50;85.80;;;;;;5021657;28;25154;-76
2023/09/14 04:04:20;;;;;;;;;;;18.50;85.90;;;;;;5004130;28;25166;-76
2023/09/14 04:06:48;;;;;;;;;;;18.40;85.80;;;;;;5002829;28;25178;-77
2023/09/14 04:09:15;;;;;;;;;;;18.40;85.80;;;;;;5022959;28;25114;-76
2023/09/14 04:11:42;;;;;;;;;;;18.40;85.80;;;;;;5019859;28;25070;-77
2023/09/14 04:14:08;;;;;;;;;;;18.30;85.70;;;;;;5005226;28;25151;-77
2023/09/14 04:16:35;;;;;;;;;;;18.30;85.60;;;;;;5018492;28;25050;-76
2023/09/14 04:19:03;;;;;;;;;;;18.30;85.70;;;;;;5014804;28;25070;-77
2023/09/14 04:21:30;;;;;;;;;;;18.30;85.70;;;;;;5020520;28;25104;-76
2023/09/14 04:23:57;;;;;;;;;;;18.30;85.70;;;;;;5014838;28;25060;-76
2023/09/14 04:26:26;;;;;;;;;;;18.30;85.70;;;;;;5019376;28;20091;-78
2023/09/14 04:28:53;;;;;;;;;;;18.20;85.60;;;;;;4999696;28;25099;-76
2023/09/14 04:31:19;;;;;;;;;;;18.20;85.60;;;;;;5000040;28;21120;-76
2023/09/14 04:33:46;;;;;;;;;;;18.20;85.60;;;;;;5015770;28;20134;-77
2023/09/14 04:36:14;;;;;;;;;;;18.10;85.50;;;;;;5000952;28;25097;-77
2023/09/14 04:38:41;;;;;;;;;;;18.10;85.50;;;;;;5020057;28;25071;-78
2023/09/14 04:41:07;;;;;;;;;;;18.10;85.40;;;;;;4987326;28;20130;-77
2023/09/14 04:43:34;;;;;;;;;;;18.10;85.50;;;;;;5018051;28;25108;-76
2023/09/14 04:46:01;;;;;;;;;;;18.00;85.40;;;;;;5018323;28;19965;-76
2023/09/14 04:48:28;;;;;;;;;;;18.10;85.40;;;;;;5001116;28;20195;-77
2023/09/14 04:50:58;;;;;;;;;;;18.00;85.40;;;;;;5004289;28;25081;-78
2023/09/14 04:53:26;;;;;;;;;;;18.00;85.30;;;;;;5018386;28;25132;-77
2023/09/14 04:55:53;;;;;;;;;;;17.60;79.60;;;;;;5019507;28;25132;-76
2023/09/14 04:58:20;;;;;;;;;;;17.50;82.30;;;;;;4984091;28;20566;-76
2023/09/14 05:00:48;;;;;;;;;;;17.50;82.80;;;;;;4980134;28;20151;-77
2023/09/14 05:03:14;;;;;;;;;;;17.40;82.90;;;;;;5003762;28;25079;-76
2023/09/14 05:05:41;;;;;;;;;;;17.40;82.70;;;;;;5019317;28;25053;-76
2023/09/14 05:08:07;;;;;;;;;;;17.40;82.70;;;;;;5021140;28;20103;-76
2023/09/14 05:10:36;;;;;;;;;;;17.50;82.80;;;;;;5020060;28;25109;-76
2023/09/14 05:13:03;;;;;;;;;;;17.50;82.80;;;;;;5001249;28;19970;-76
2023/09/14 05:15:30;;;;;;;;;;;17.50;82.70;;;;;;5000343;28;25093;-76
2023/09/14 05:17:56;;;;;;;;;;;17.50;82.70;;;;;;4998014;28;19984;-76
2023/09/14 05:20:23;;;;;;;;;;;17.50;82.70;;;;;;5013803;28;25456;-76
2023/09/14 05:22:49;;;;;;;;;;;17.50;82.60;;;;;;5015763;28;20163;-76
2023/09/14 05:25:16;;;;;;;;;;;17.50;82.70;;;;;;5017771;28;20251;-76
2023/09/14 05:27:44;;;;;;;;;;;17.50;82.60;;;;;;5016080;28;20159;-76
2023/09/14 05:30:11;;;;;;;;;;;17.50;82.60;;;;;;5017518;28;20194;-76
2023/09/14 05:32:40;;;;;;;;;;;17.50;82.60;;;;;;4998139;28;20620;-76
2023/09/14 05:35:07;;;;;;;;;;;17.50;82.60;;;;;;5015549;28;20218;-74
2023/09/14 05:37:34;;;;;;;;;;;17.40;82.60;;;;;;5000703;28;25098;-76
2023/09/14 05:40:00;;;;;;;;;;;17.40;82.60;;;;;;5019098;28;20350;-76
2023/09/14 05:42:27;;;;;;;;;;;17.40;82.70;;;;;;5017014;28;21064;-76
2023/09/14 05:44:55;;;;;;;;;;;17.40;82.70;;;;;;5019637;28;25077;-77
2023/09/14 05:47:22;;;;;;;;;;;17.40;82.60;;;;;;5017105;28;25074;-76
2023/09/14 05:49:49;;;;;;;;;;;17.40;82.80;;;;;;5019268;28;25068;-76
2023/09/14 05:52:16;;;;;;;;;;;17.40;82.70;;;;;;5005918;28;25176;-76
2023/09/14 05:54:43;;;;;;;;;;;17.40;82.70;;;;;;5001552;28;25207;-76
2023/09/14 05:57:10;;;;;;;;;;;17.40;82.70;;;;;;5002969;28;25108;-76
2023/09/14 05:59:37;;;;;;;;;;;17.40;82.70;;;;;;5001870;28;25146;-75
2023/09/14 06:02:05;;;;;;;;;;;17.40;82.70;;;;;;5015455;28;25103;-76
2023/09/14 06:04:32;;;;;;;;;;;17.40;82.70;;;;;;5001730;28;20333;-75
2023/09/14 06:06:59;;;;;;;;;;;17.40;82.90;;;;;;5003140;28;20335;-76
2023/09/14 06:09:26;;;;;;;;;;;17.40;82.90;;;;;;4986658;28;25263;-76
2023/09/14 06:11:52;;;;;;;;;;;17.40;82.90;;;;;;5001220;28;20315;-76
2023/09/14 06:14:19;;;;;;;;;;;17.40;83.10;;;;;;5023933;28;25119;-76
2023/09/14 06:16:46;;;;;;;;;;;17.30;82.90;;;;;;5013949;28;25075;-76
2023/09/14 06:19:14;;;;;;;;;;;17.30;82.90;;;;;;5003864;28;20251;-76
2023/09/14 06:21:41;;;;;;;;;;;17.30;83.00;;;;;;5015054;28;20259;-76
2023/09/14 06:24:09;;;;;;;;;;;17.30;82.90;;;;;;5020204;28;25100;-77
2023/09/14 06:26:36;;;;;;;;;;;17.30;82.90;;;;;;5018391;28;25071;-76
2023/09/14 06:29:02;;;;;;;;;;;17.30;82.90;;;;;;5021689;28;25125;-76
2023/09/14 06:31:29;;;;;;;;;;;17.30;82.90;;;;;;5015401;28;25081;-77
2023/09/14 06:33:58;;;;;;;;;;;17.30;82.90;;;;;;5022292;28;20237;-75
2023/09/14 06:36:26;;;;;;;;;;;17.30;82.90;;;;;;5017259;28;20222;-76
2023/09/14 06:38:53;;;;;;;;;;;17.30;82.90;;;;;;5018779;28;20289;-77
2023/09/14 06:41:20;;;;;;;;;;;17.30;82.90;;;;;;5023621;28;25063;-74
2023/09/14 06:43:46;;;;;;;;;;;17.30;82.90;;;;;;5006036;28;25104;-75
2023/09/14 06:46:15;;;;;;;;;;;17.30;82.90;;;;;;5023040;28;25164;-76
2023/09/14 06:48:41;;;;;;;;;;;17.20;82.80;;;;;;5024089;28;20515;-76
2023/09/14 06:51:10;;;;;;;;;;;17.30;82.90;;;;;;5022240;28;20582;-74
2023/09/14 06:53:39;;;;;;;;;;;17.30;82.90;;;;;;5011147;28;20206;-76
2023/09/14 06:56:06;;;;;;;;;;;17.30;82.90;;;;;;5022953;28;25071;-76
2023/09/14 06:58:33;;;;;;;;;;;17.30;82.80;;;;;;5022217;28;20224;-77
2023/09/14 07:01:03;;;;;;;;;;;17.20;82.70;;;;;;4999115;28;20355;-77
2023/09/14 07:03:30;;;;;;;;;;;17.20;82.70;;;;;;5004008;28;20233;-77
2023/09/14 07:05:57;;;;;;;;;;;17.20;82.80;;;;;;5009198;28;25067;-77
2023/09/14 07:08:25;;;;;;;;;;;17.30;82.80;;;;;;5025047;28;20731;-76
2023/09/14 07:10:54;;;;;;;;;;;17.30;82.70;;;;;;5023789;28;25078;-75
2023/09/14 07:13:21;;;;;;;;;;;17.30;82.80;;;;;;5020298;28;25071;-77
2023/09/14 07:15:47;;;;;;;;;;;17.30;82.80;;;;;;5022739;28;20236;-77
2023/09/14 07:18:26;;;;;;;;;;;17.30;82.70;;;;;;5020269;28;24893;-77
2023/09/14 07:20:53;;;;;;;;;;;17.30;82.70;;;;;;5020054;28;20249;-77
2023/09/14 07:23:25;;;;;;;;;;;17.30;82.80;;;;;;5019810;28;20367;-77
2023/09/14 07:25:53;;;;;;;;;;;17.30;82.80;;;;;;5020886;28;25110;-78
2023/09/14 07:28:21;;;;;;;;;;;17.30;82.70;;;;;;5018930;28;20248;-77
2023/09/14 07:30:48;;;;;;;;;;;17.30;82.70;;;;;;5016713;28;25190;-78
2023/09/14 07:33:14;;;;;;;;;;;17.30;82.60;;;;;;5019717;28;20265;-76
2023/09/14 07:35:41;;;;;;;;;;;17.30;82.70;;;;;;5012277;28;25086;-77
2023/09/14 07:38:08;;;;;;;;;;;17.30;82.60;;;;;;5001462;28;25111;-76
2023/09/14 07:40:35;;;;;;;;;;;17.30;82.60;;;;;;5004462;28;25124;-76
2023/09/14 07:43:04;;;;;;;;;;;17.30;82.50;;;;;;5019501;28;25070;-76
2023/09/14 07:45:33;;;;;;;;;;;17.30;82.60;;;;;;5017962;28;25082;-76
2023/09/14 07:48:02;;;;;;;;;;;17.30;82.70;;;;;;5020141;28;25120;-76
2023/09/14 07:50:29;;;;;;;;;;;17.30;82.60;;;;;;5007505;28;25076;-77
2023/09/14 07:52:55;;;;;;;;;;;17.30;82.70;;;;;;5019871;28;25082;-77
2023/09/14 07:55:22;;;;;;;;;;;17.40;82.60;;;;;;5023653;28;25060;-77
2023/09/14 07:57:48;;;;;;;;;;;17.30;82.60;;;;;;5021990;28;25069;-76
2023/09/14 08:00:18;;;;;;;;;;;17.30;82.60;;;;;;5019382;28;25150;-75
2023/09/14 08:02:44;;;;;;;;;;;17.40;82.70;;;;;;5017892;28;25083;-75
2023/09/14 08:05:11;;;;;;;;;;;17.40;82.70;;;;;;5004088;28;20757;-77
2023/09/14 08:07:38;;;;;;;;;;;17.40;82.70;;;;;;5021741;28;25099;-77
2023/09/14 08:10:05;;;;;;;;;;;17.40;82.60;;;;;;5019134;28;25092;-75
2023/09/14 08:12:32;;;;;;;;;;;17.40;82.60;;;;;;5021383;28;25106;-77
2023/09/14 08:14:59;;;;;;;;;;;17.40;82.60;;;;;;5019993;28;25075;-77
2023/09/14 08:17:27;;;;;;;;;;;17.50;82.90;;;;;;5021287;28;25117;-77
2023/09/14 08:19:54;;;;;;;;;;;17.50;82.80;;;;;;5017920;28;25082;-77
2023/09/14 08:22:22;;;;;;;;;;;17.50;82.80;;;;;;5003197;28;25112;-75
2023/09/14 08:24:49;;;;;;;;;;;17.50;82.90;;;;;;5017934;28;25191;-77
2023/09/14 08:27:15;;;;;;;;;;;17.50;82.90;;;;;;5007378;28;20262;-76
2023/09/14 08:29:42;;;;;;;;;;;17.50;82.70;;;;;;5000518;28;25092;-78
2023/09/14 08:32:11;;;;;;;;;;;17.60;82.80;;;;;;5017737;28;20174;-77
2023/09/14 08:34:39;;;;;;;;;;;17.60;82.80;;;;;;5015332;28;20240;-77
2023/09/14 08:37:09;;;;;;;;;;;17.60;82.80;;;;;;5004900;28;20309;-77
2023/09/14 08:39:35;;;;;;;;;;;17.60;82.90;;;;;;5008405;28;20160;-77
2023/09/14 08:42:02;;;;;;;;;;;17.70;82.90;;;;;;5009003;28;20291;-76
2023/09/14 08:44:30;;;;;;;;;;;17.60;82.80;;;;;;5021470;28;20196;-78
2023/09/14 08:46:57;;;;;;;;;;;17.70;82.90;;;;;;5001642;28;20231;-76
2023/09/14 08:49:27;;;;;;;;;;;17.70;83.10;;;;;;5005128;28;25077;-77
2023/09/14 08:51:55;;;;;;;;;;;17.80;83.00;;;;;;5021263;28;20441;-77
2023/09/14 08:54:23;;;;;;;;;;;17.80;82.80;;;;;;5007722;28;20341;-77
2023/09/14 08:56:51;;;;;;;;;;;17.80;82.70;;;;;;5019917;28;20219;-77
2023/09/14 08:59:19;;;;;;;;;;;17.90;82.90;;;;;;5021484;28;20227;-77
2023/09/14 09:01:48;;;;;;;;;;;17.90;83.00;;;;;;5016329;28;20236;-76
2023/09/14 09:04:16;;;;;;;;;;;17.90;82.90;;;;;;5000571;28;20972;-77
2023/09/14 09:06:43;;;;;;;;;;;18.00;82.90;;;;;;5018215;28;25066;-77
2023/09/14 09:09:14;;;;;;;;;;;18.00;82.80;;;;;;5018917;28;25096;-78
2023/09/14 09:11:41;;;;;;;;;;;18.00;82.70;;;;;;5017937;28;20212;-77
2023/09/14 09:14:07;;;;;;;;;;;18.10;82.50;;;;;;5017344;28;20204;-76
2023/09/14 09:16:34;;;;;;;;;;;18.10;82.50;;;;;;5022190;28;20268;-77
2023/09/14 09:19:02;;;;;;;;;;;18.10;82.40;;;;;;5019295;28;25060;-77
2023/09/14 09:21:30;;;;;;;;;;;18.10;82.30;;;;;;5000801;28;20211;-77
2023/09/14 09:23:57;;;;;;;;;;;18.20;82.30;;;;;;5017666;28;25159;-78
2023/09/14 09:26:26;;;;;;;;;;;18.20;82.10;;;;;;5020067;28;20239;-77
2023/09/14 09:28:53;;;;;;;;;;;18.20;82.00;;;;;;5002304;28;20854;-77
2023/09/14 09:31:21;;;;;;;;;;;18.30;82.30;;;;;;5010487;28;20292;-77
2023/09/14 09:33:49;;;;;;;;;;;18.30;82.10;;;;;;5014015;28;25087;-76
2023/09/14 09:36:20;;;;;;;;;;;18.30;82.10;;;;;;5016940;28;25090;-78
2023/09/14 09:38:50;;;;;;;;;;;18.30;81.70;;;;;;5018074;28;25053;-77
2023/09/14 09:41:23;;;;;;;;;;;18.30;81.50;;;;;;5004086;28;25071;-79
2023/09/14 09:43:52;;;;;;;;;;;18.40;81.60;;;;;;5012924;28;20289;-78
2023/09/14 09:46:20;;;;;;;;;;;18.50;81.40;;;;;;5008992;28;20277;-77
2023/09/14 09:48:47;;;;;;;;;;;18.50;81.10;;;;;;5010405;28;25048;-77
2023/09/14 09:51:14;;;;;;;;;;;18.50;80.90;;;;;;5012802;28;25140;-78
2023/09/14 09:53:56;;;;;;;;;;;18.60;80.80;;;;;;5014659;28;20701;-76
2023/09/14 09:56:23;;;;;;;;;;;18.60;80.40;;;;;;5012421;28;20297;-76
2023/09/14 09:58:51;;;;;;;;;;;18.70;80.10;;;;;;4994779;28;20250;-75
2023/09/14 10:01:21;;;;;;;;;;;18.70;79.90;;;;;;5014353;28;20444;-75
2023/09/14 10:03:47;;;;;;;;;;;18.80;79.10;;;;;;4997943;28;20255;-76
2023/09/14 10:06:14;;;;;;;;;;;18.90;79.40;;;;;;5013496;28;25074;-77
2023/09/14 10:08:41;;;;;;;;;;;18.90;79.50;;;;;;4997132;28;20254;-77
2023/09/14 10:11:08;;;;;;;;;;;19.00;79.70;;;;;;5016352;28;20783;-77
2023/09/14 10:13:34;;;;;;;;;;;19.00;79.00;;;;;;5015731;28;25066;-77
2023/09/14 10:16:03;;;;;;;;;;;19.10;78.10;;;;;;5011749;28;25058;-77
2023/09/14 10:18:32;;;;;;;;;;;19.20;77.90;;;;;;5006589;28;25081;-74
2023/09/14 10:20:59;;;;;;;;;;;19.30;78.10;;;;;;5014393;28;20285;-77
2023/09/14 10:23:27;;;;;;;;;;;19.30;77.70;;;;;;5020243;28;25074;-77
2023/09/14 10:25:54;;;;;;;;;;;19.40;77.60;;;;;;5015800;28;20395;-78
2023/09/14 10:28:21;;;;;;;;;;;19.40;76.70;;;;;;5013235;28;20224;-77
2023/09/14 10:30:49;;;;;;;;;;;19.50;76.70;;;;;;4985673;28;20487;-76
2023/09/14 10:49:32;;;;;;;;;;;19.70;76.50;;;;;;5068518;27;25063;-77
2023/09/14 10:51:58;;;;;;;;;;;20.00;74.60;;;;;;5030172;28;21157;-77
2023/09/14 10:54:25;;;;;;;;;;;20.10;74.90;;;;;;5033840;28;25065;-76
2023/09/14 10:56:55;;;;;;;;;;;20.20;75.70;;;;;;5031743;28;19988;-77
2023/09/14 10:59:22;;;;;;;;;;;20.20;74.60;;;;;;5028433;28;20141;-77
2023/09/14 11:01:50;;;;;;;;;;;20.30;75.00;;;;;;5048289;28;20152;-77
2023/09/14 11:04:19;;;;;;;;;;;20.40;75.40;;;;;;5059632;28;20149;-76
2023/09/14 11:06:48;;;;;;;;;;;20.40;74.70;;;;;;5051130;28;20148;-76
2023/09/14 11:09:15;;;;;;;;;;;20.50;74.10;;;;;;5051685;28;20618;-76
2023/09/14 11:11:42;;;;;;;;;;;20.60;74.30;;;;;;5045563;28;20073;-75
2023/09/14 11:14:09;;;;;;;;;;;20.60;73.10;;;;;;5045648;28;20600;-76
2023/09/14 11:16:42;;;;;;;;;;;20.70;73.40;;;;;;5061402;28;20636;-77
2023/09/14 11:19:08;;;;;;;;;;;20.70;73.10;;;;;;5059811;28;20185;-78
2023/09/14 11:21:42;;;;;;;;;;;20.80;72.50;;;;;;5051825;28;20487;-77
2023/09/14 11:24:10;;;;;;;;;;;20.90;73.00;;;;;;5057999;28;20239;-77
2023/09/14 11:26:42;;;;;;;;;;;21.00;73.30;;;;;;5054363;28;25150;-77
2023/09/14 11:29:11;;;;;;;;;;;21.00;72.70;;;;;;5056361;28;20009;-77
2023/09/14 11:31:39;;;;;;;;;;;21.10;71.70;;;;;;5054180;28;20170;-76
2023/09/14 11:34:06;;;;;;;;;;;21.10;70.90;;;;;;5054416;28;19993;-75
2023/09/14 11:36:34;;;;;;;;;;;21.20;71.90;;;;;;5053048;28;20164;-75
2023/09/14 11:39:07;;;;;;;;;;;21.30;71.90;;;;;;5052064;28;20018;-77
2023/09/14 11:41:40;;;;;;;;;;;21.30;71.80;;;;;;5054456;28;25070;-74
2023/09/14 11:44:06;;;;;;;;;;;21.40;71.20;;;;;;5055858;28;20651;-77
2023/09/14 11:46:34;;;;;;;;;;;21.40;70.70;;;;;;5057321;28;20184;-77
2023/09/14 11:49:01;;;;;;;;;;;21.50;69.90;;;;;;5049562;28;25060;-77
2023/09/14 11:51:28;;;;;;;;;;;21.50;69.90;;;;;;5042432;28;19988;-77
2023/09/14 11:53:55;;;;;;;;;;;21.60;69.60;;;;;;5042663;28;25073;-74
2023/09/14 11:56:22;;;;;;;;;;;21.70;70.30;;;;;;5041204;28;20711;-77
2023/09/14 11:58:50;;;;;;;;;;;21.70;69.80;;;;;;5042297;28;20695;-77
2023/09/14 12:01:18;;;;;;;;;;;21.80;69.40;;;;;;5039721;28;20139;-76
2023/09/14 12:03:44;;;;;;;;;;;21.90;70.90;;;;;;5038557;28;25087;-77
2023/09/14 12:06:11;;;;;;;;;;;21.90;70.00;;;;;;5040748;28;19987;-75
2023/09/14 12:08:45;;;;;;;;;;;22.00;69.20;;;;;;5029953;28;20132;-76
2023/09/14 12:11:13;;;;;;;;;;;22.00;70.30;;;;;;5040808;28;20153;-77
2023/09/14 12:13:50;;;;;;;;;;;22.10;69.70;;;;;;5038162;28;20449;-76
2023/09/14 12:16:19;;;;;;;;;;;22.10;69.50;;;;;;5043555;28;25109;-77
2023/09/14 12:18:46;;;;;;;;;;;22.20;68.90;;;;;;5045369;28;20745;-78
2023/09/14 12:21:13;;;;;;;;;;;22.30;69.40;;;;;;5042179;28;20107;-78
2023/09/14 12:23:41;;;;;;;;;;;22.30;70.30;;;;;;5041919;28;20107;-77
2023/09/14 12:26:08;;;;;;;;;;;22.40;69.80;;;;;;5041458;28;20633;-75
2023/09/14 12:28:36;;;;;;;;;;;22.40;68.80;;;;;;5037942;28;19978;-78
2023/09/14 12:31:04;;;;;;;;;;;22.40;69.40;;;;;;5037364;28;19975;-75
2023/09/14 12:33:31;;;;;;;;;;;22.50;67.80;;;;;;5039436;28;20224;-78
2023/09/14 12:35:57;;;;;;;;;;;22.50;68.70;;;;;;5037107;28;21244;-78
2023/09/14 12:38:24;;;;;;;;;;;22.60;69.30;;;;;;5041219;28;20149;-78
2023/09/14 12:40:51;;;;;;;;;;;22.60;67.00;;;;;;5041665;28;20120;-78
2023/09/14 12:43:18;;;;;;;;;;;22.60;67.10;;;;;;5041684;28;25114;-78
2023/09/14 12:45:45;;;;;;;;;;;22.70;68.90;;;;;;5041181;28;19987;-76
2023/09/14 12:48:13;;;;;;;;;;;22.80;67.70;;;;;;5041492;28;20895;-78
2023/09/14 12:50:41;;;;;;;;;;;22.70;65.80;;;;;;5038573;28;20111;-77
2023/09/14 12:53:08;;;;;;;;;;;22.80;67.40;;;;;;5038052;28;20151;-77
2023/09/14 12:55:38;;;;;;;;;;;22.80;66.40;;;;;;5021627;28;20549;-78
2023/09/14 12:58:05;;;;;;;;;;;22.90;66.30;;;;;;4952137;28;20607;-77
2023/09/14 13:00:33;;;;;;;;;;;23.00;67.30;;;;;;4958396;28;20110;-77
2023/09/14 13:02:59;;;;;;;;;;;23.00;67.10;;;;;;4978257;28;20128;-76
2023/09/14 13:05:27;;;;;;;;;;;23.10;67.30;;;;;;4980794;28;20177;-77
2023/09/14 13:07:55;;;;;;;;;;;23.10;67.70;;;;;;4977522;28;20890;-76
2023/09/14 13:10:23;;;;;;;;;;;23.10;66.40;;;;;;4989891;28;19966;-78
2023/09/14 13:12:52;;;;;;;;;;;23.10;65.90;;;;;;4978455;28;25058;-78
2023/09/14 13:15:19;;;;;;;;;;;23.20;66.90;;;;;;4983806;28;19968;-78
2023/09/14 13:17:47;;;;;;;;;;;23.20;66.00;;;;;;4986353;28;19984;-75
2023/09/14 13:20:14;;;;;;;;;;;23.20;65.80;;;;;;4985190;28;20105;-77
2023/09/14 13:22:42;;;;;;;;;;;23.30;66.80;;;;;;4981239;28;25080;-76
2023/09/14 13:25:09;;;;;;;;;;;23.30;63.30;;;;;;4980996;28;19975;-78
2023/09/14 13:27:40;;;;;;;;;;;23.30;65.60;;;;;;4992511;28;20114;-78
2023/09/14 13:30:09;;;;;;;;;;;23.30;66.40;;;;;;4998590;28;19974;-78
2023/09/14 13:32:37;;;;;;;;;;;23.40;64.50;;;;;;4996966;28;20220;-78
2023/09/14 13:35:04;;;;;;;;;;;23.40;64.70;;;;;;4998618;28;19990;-78
2023/09/14 13:37:31;;;;;;;;;;;23.40;63.40;;;;;;4994580;28;20107;-78
2023/09/14 13:39:59;;;;;;;;;;;23.50;63.90;;;;;;4998564;28;20075;-77
2023/09/14 13:42:25;;;;;;;;;;;23.50;64.60;;;;;;4994469;28;25057;-78
2023/09/14 13:44:52;;;;;;;;;;;23.50;64.40;;;;;;4996574;28;19973;-78
2023/09/14 13:47:18;;;;;;;;;;;23.60;63.50;;;;;;4993070;28;19970;-78
2023/09/14 13:49:46;;;;;;;;;;;23.60;63.50;;;;;;4990756;28;20099;-77
2023/09/14 13:52:12;;;;;;;;;;;23.60;60.80;;;;;;4988755;28;20110;-77
2023/09/14 13:54:39;;;;;;;;;;;23.70;60.90;;;;;;4996144;28;20102;-78
2023/09/14 13:57:07;;;;;;;;;;;23.70;61.90;;;;;;4987890;28;20124;-77
2023/09/14 13:59:34;;;;;;;;;;;23.80;62.40;;;;;;4995365;28;20664;-78
2023/09/14 14:02:00;;;;;;;;;;;23.80;63.60;;;;;;4988880;28;25128;-77
2023/09/14 14:04:28;;;;;;;;;;;23.80;63.30;;;;;;4996738;28;19984;-77
2023/09/14 14:06:55;;;;;;;;;;;23.90;62.20;;;;;;4994097;28;20128;-78
2023/09/14 14:09:21;;;;;;;;;;;23.90;62.80;;;;;;4996046;28;20149;-77
2023/09/14 14:11:48;;;;;;;;;;;23.90;63.40;;;;;;4996624;28;19984;-78
2023/09/14 14:14:16;;;;;;;;;;;24.00;61.40;;;;;;4995830;28;20105;-75
2023/09/14 14:16:42;;;;;;;;;;;24.00;63.90;;;;;;4992799;28;20183;-78
2023/09/14 14:19:09;;;;;;;;;;;24.10;61.40;;;;;;4995519;28;25146;-79
2023/09/14 14:21:35;;;;;;;;;;;24.10;60.70;;;;;;4998019;28;25077;-78
2023/09/14 14:24:02;;;;;;;;;;;24.10;61.20;;;;;;4997355;28;20111;-77
2023/09/14 14:26:29;;;;;;;;;;;24.20;58.80;;;;;;4994005;28;20629;-77
2023/09/14 14:28:56;;;;;;;;;;;24.20;61.50;;;;;;4993087;28;20939;-78
2023/09/14 14:31:23;;;;;;;;;;;24.20;61.40;;;;;;4994908;28;20140;-78
2023/09/14 14:33:50;;;;;;;;;;;24.30;58.30;;;;;;4995000;28;25067;-76